• Join FlightAware (Why Join?)
  • Login
  • US Flag 
 
04:45PM EST


 

Airport Tracker/Info


-or-


 

Live Flight TrackerFlight Track Log ✈ AWI3688 ✈ 29-Apr-2013 ✈ KPHL - KALB

Flight Track Log - Related Links

Times and Time Zones

All times are in EDT time to prevent confusion due to time zone crossing. See the AWI3688 flight status page for this flight to view local times or setup timezone preferences in your user account.

Time Position Orientation Groundspeed Altitude Reporting Facility
EDT Latitude Longitude Course Direction KTS MPH feet Rate Location/Type
12:35PM 39.8833 -75.2167 37° Northeast 148 170 900  Level Philadelphia TRACON
12:36PM 39.8667 -75.1500 108° East 202 232 2,900 2,340 Climbing Philadelphia TRACON
12:38PM 39.7971 -74.7686 105° East  Level FlightAware Approximate
12:38PM 39.8383 -74.9828 102° East 257 296 7,800  Level New York Center
12:39PM 39.8387 -74.6447 37° Northeast  Level FlightAware Approximate
12:39PM 39.8225 -74.8956 103° East 272 313 10,100  Level New York Center
12:40PM 39.9407 -74.5593 37° Northeast  Level FlightAware Approximate
12:40PM 39.8394 -74.7719 80° East 306 352 11,600  Level New York Center
12:41PM 40.0326 -74.4508 37° Northeast  Level FlightAware Approximate
12:41PM 39.9031 -74.6783 48° Northeast 301 346 13,800  Level New York Center
12:42PM 39.9728 -74.5819 47° Northeast 327 376 15,300 1,680 Climbing New York Center
12:43PM 40.0467 -74.4911 43° Northeast 349 402 17,300 1,560 Climbing New York Center
12:44PM 40.1236 -74.4275 32° Northeast 365 420 18,500 1,260 Climbing New York Center
12:45PM 40.2200 -74.3428 34° Northeast 371 427 19,900 1,080 Climbing New York Center
12:46PM 40.3161 -74.2661 31° Northeast 385 443 20,700 900 Climbing New York Center
12:47PM 40.4081 -74.1836 34° Northeast 396 456 21,800 1,320 Climbing New York Center
12:48PM 40.5042 -74.1036 32° Northeast 402 463 23,400 1,080 Climbing New York Center
12:49PM 40.6003 -74.0236 32° Northeast 402 463 24,000 180 Climbing New York Center
12:52PM 40.8142 -73.8386 33° Northeast 434 499 24,000  Level Boston Center
12:53PM 40.9114 -73.7200 43° Northeast 455 524 24,000 -540 Level Boston Center
12:54PM 41.0167 -73.6258 34° Northeast 460 529 23,000 -960 Descending Boston Center
12:55PM 41.1375 -73.6142 North 430 495 22,100 -1,200 Descending Boston Center
12:56PM 41.2583 -73.6247 356° North 425 489 20,700 -1,560 Descending Boston Center
12:57PM 41.3853 -73.6436 354° North 419 482 19,000 -1,500 Descending Boston Center
12:58PM 41.5039 -73.6569 355° North 412 474 17,700 -1,380 Descending Boston Center
12:59PM 41.6183 -73.6703 355° North 417 480 16,300 -1,500 Descending Boston Center
01:00PM 41.7267 -73.6806 356° North 404 465 14,700 -1,500 Descending Boston Center
01:01PM 41.8328 -73.6939 355° North 393 452 13,300 -1,500 Descending Boston Center
01:02PM 41.9369 -73.7044 356° North 384 442 11,700 -1,620 Descending Boston Center
01:02PM 41.9869 -73.7136 352° North 377 434 11,000 -720 Descending Boston Center
01:03PM 42.0408 -73.7206 355° North 384 442 11,000  Level Boston Center
01:03PM 42.0931 -73.7269 355° North 375 432 11,000  Level Boston Center
01:04PM 42.1347 -73.7306 356° North 378 435 11,000  Level Boston Center
01:04PM 42.1950 -73.7375 355° North 372 428 11,000  Level Boston Center
01:05PM 42.2514 -73.7331 North 378 435 11,000  Level Boston Center
01:05PM 42.3014 -73.7258 North 388 447 11,000  Level Boston Center
01:06PM 42.3369 -73.7208 North 378 435 11,000 -720 Level Boston Center
01:06PM 42.4078 -73.7111 North 383 441 10,300 -1,020 Descending Boston Center
01:07PM 42.4539 -73.7036 North 369 425 10,000 -840 Descending Boston Center
01:07PM 42.4956 -73.6958 North 297 342 9,500 -1,440 Descending Boston Center
01:08PM 42.5269 -73.6908 North 315 362 8,600 -1,920 Descending Boston Center
01:08PM 42.5769 -73.6892 North 283 326 7,600 -2,040 Descending Boston Center
01:09PM 42.6167 -73.6786 11° North 289 333 6,600 -2,100 Descending Boston Center
01:09PM 42.6606 -73.6711 North 285 328 5,500 -1,800 Descending Boston Center
01:10PM 42.6875 -73.6689 North 289 333 4,800 -1,920 Descending Boston Center
01:10PM 42.7394 -73.6867 346° North 298 343 3,600 -1,800 Descending Boston Center
01:11PM 42.7747 -73.6958 349° North 284 327 3,000 -1,380 Descending Boston Center